»·PEaware :: N56YB KSAN-KOLS

N56YB :: KSAN-KOLS

FLIGHT INFORMATION

Flight Status: Arrived
Operator: Privately registered:
United States
More flights under this callsign
Pilot: Bill H. (23183)
Aircraft: CIRRUS SR-20
(SR20)
More flights by this aircraft type
Origin: KSAN San Diego Intl-Lindbergh
United States
Destination: KOLS Nogales Intl
United States
More flights between these airports :: More routes between these airports
Route: KSAN KNJK KLGF KOLS
File this flight plan on PilotEdge
Remarks: +CW / Training / Orientation Flight | Cirrus SR20
Altitude:
(Current/Filed)
9,500ft
Speed:
(Current/Filed)
140kts
Departed: 30-Apr-19 05:41 AM
Arrived: 30-Apr-19 08:08 AM
Distance/Time
Traveled:
332nm/2:27
Distance/Time
To Go:
Arrived

Flight Plot

Page will automatically refresh every two minutes.

Flight plan parsing failed; only flown route is shown


Map Options




Map Legend


Flown Route
Filed Route
Departure Airport
Arrival Airport
Navaid (VOR, NDB)
Fix

Horizontal Profiles

Position Reports

Time Latitude Longitude Heading Altitude Ground
Speed
30-Apr-19 05:38 32.731260 -117.176648 170 19ft 0kts
30-Apr-19 05:39 32.731260 -117.176648 170 19ft 0kts
30-Apr-19 05:40 32.730936 -117.179211 286 16ft 56kts
30-Apr-19 05:41 32.743382 -117.206843 308 861ft 110kts
30-Apr-19 05:42 32.728458 -117.218184 114 1947ft 110kts
30-Apr-19 05:43 32.745538 -117.212313 281 2834ft 123kts
30-Apr-19 05:44 32.736398 -117.212056 83 4248ft 77kts
30-Apr-19 05:45 32.735622 -117.187336 105 5197ft 79kts
30-Apr-19 05:46 32.728424 -117.165028 156 6086ft 82kts
30-Apr-19 05:47 32.727038 -117.135401 74 6490ft 128kts
30-Apr-19 05:48 32.739464 -117.099175 68 7383ft 110kts
30-Apr-19 05:49 32.747062 -117.072134 76 8374ft 88kts
30-Apr-19 05:50 32.751364 -117.043104 84 9162ft 89kts
30-Apr-19 05:51 32.754059 -117.009752 84 9511ft 127kts
30-Apr-19 05:52 32.756328 -116.963118 88 9500ft 148kts
30-Apr-19 05:53 32.756242 -116.913345 91 9500ft 151kts
30-Apr-19 05:54 32.753554 -116.863407 95 9499ft 151kts
30-Apr-19 05:55 32.753253 -116.813381 85 9500ft 152kts
30-Apr-19 05:56 32.756259 -116.763161 84 9500ft 152kts
30-Apr-19 05:57 32.760612 -116.713269 83 9500ft 152kts
30-Apr-19 05:58 32.764987 -116.663352 83 9500ft 152kts
30-Apr-19 05:59 32.769375 -116.613367 83 9500ft 152kts
30-Apr-19 06:00 32.773783 -116.563222 83 9500ft 152kts
30-Apr-19 06:01 32.778178 -116.513309 83 9500ft 152kts
30-Apr-19 06:02 32.782591 -116.463368 83 9499ft 151kts
30-Apr-19 06:03 32.786334 -116.413768 84 9500ft 151kts
30-Apr-19 06:04 32.790025 -116.363905 84 9500ft 151kts
30-Apr-19 06:05 32.793712 -116.314170 84 9500ft 151kts
30-Apr-19 06:06 32.797404 -116.264475 84 9500ft 151kts
30-Apr-19 06:07 32.798280 -116.214599 87 9500ft 151kts
30-Apr-19 06:08 32.800650 -116.164677 86 9499ft 151kts
30-Apr-19 06:09 32.803519 -116.114848 85 9500ft 151kts
30-Apr-19 06:10 32.806488 -116.065179 85 9500ft 151kts
30-Apr-19 06:11 32.809482 -116.015327 85 9500ft 151kts
30-Apr-19 06:12 32.812459 -115.965534 85 9500ft 151kts
30-Apr-19 06:13 32.815417 -115.915786 85 9500ft 151kts
30-Apr-19 06:14 32.818368 -115.865810 85 9500ft 151kts
30-Apr-19 06:15 32.821283 -115.816111 85 9500ft 151kts
30-Apr-19 06:16 32.824191 -115.766188 85 9500ft 151kts
30-Apr-19 06:17 32.827076 -115.716336 85 9500ft 151kts
30-Apr-19 06:18 32.829754 -115.666381 88 9499ft 151kts
30-Apr-19 06:19 32.831080 -115.616502 87 9500ft 151kts
30-Apr-19 06:20 32.832705 -115.566541 87 9500ft 151kts
30-Apr-19 06:21 32.834388 -115.516694 87 9500ft 151kts
30-Apr-19 06:22 32.836077 -115.466649 87 9500ft 151kts
30-Apr-19 06:23 32.837747 -115.416747 87 9500ft 151kts
30-Apr-19 06:24 32.839400 -115.366785 87 9500ft 151kts
30-Apr-19 06:25 32.841040 -115.316681 87 9499ft 151kts
30-Apr-19 06:26 32.842654 -115.266719 87 9500ft 151kts
30-Apr-19 06:27 32.844244 -115.216888 87 9500ft 151kts
30-Apr-19 06:28 32.845817 -115.166958 87 9500ft 151kts
30-Apr-19 06:29 32.847377 -115.116779 87 9500ft 151kts
30-Apr-19 06:30 32.848909 -115.066896 87 9500ft 151kts
30-Apr-19 06:31 32.850424 -115.016911 87 9500ft 151kts
30-Apr-19 06:32 32.851920 -114.966892 87 9500ft 151kts
30-Apr-19 06:33 32.853401 -114.916771 87 9500ft 151kts
30-Apr-19 06:34 32.854859 -114.866747 87 9500ft 151kts
30-Apr-19 06:35 32.856297 -114.816764 87 9500ft 151kts
30-Apr-19 06:36 32.857718 -114.766640 87 9500ft 151kts
30-Apr-19 06:37 32.859113 -114.716756 87 9500ft 151kts
30-Apr-19 06:38 32.860494 -114.666660 87 9500ft 151kts
30-Apr-19 06:39 32.861861 -114.618256 87 9499ft 151kts
30-Apr-19 06:40 32.863157 -114.568418 87 9500ft 151kts
30-Apr-19 06:41 32.864478 -114.518276 87 9500ft 151kts
30-Apr-19 06:42 32.865771 -114.468163 87 9500ft 153kts
30-Apr-19 06:43 32.867068 -114.417037 87 9500ft 155kts
30-Apr-19 06:44 32.856505 -114.368289 114 9499ft 152kts
30-Apr-19 06:45 32.839287 -114.324028 114 9499ft 148kts
30-Apr-19 06:46 32.822043 -114.279609 114 9499ft 148kts
30-Apr-19 06:47 32.804786 -114.235265 114 9500ft 147kts
30-Apr-19 06:48 32.787493 -114.190900 114 9500ft 147kts
30-Apr-19 06:49 32.770239 -114.146695 114 9500ft 147kts
30-Apr-19 06:50 32.752897 -114.102324 114 9500ft 147kts
30-Apr-19 06:51 32.735571 -114.058050 114 9500ft 147kts
30-Apr-19 06:52 32.718251 -114.013848 114 9500ft 147kts
30-Apr-19 06:53 32.700888 -113.969592 114 9500ft 147kts
30-Apr-19 06:54 32.683541 -113.925436 114 9500ft 147kts
30-Apr-19 06:55 32.666206 -113.881369 114 9500ft 147kts
30-Apr-19 06:56 32.648784 -113.837134 114 9500ft 147kts
30-Apr-19 06:57 32.631367 -113.792970 114 9500ft 147kts
30-Apr-19 06:58 32.613946 -113.748851 114 9500ft 147kts
30-Apr-19 06:59 32.596720 -113.705279 114 9500ft 147kts
30-Apr-19 07:00 32.579535 -113.661868 114 9500ft 147kts
30-Apr-19 07:01 32.562394 -113.618611 114 9500ft 147kts
30-Apr-19 07:02 32.545414 -113.575814 114 9500ft 147kts
30-Apr-19 07:03 32.527915 -113.531786 114 9500ft 147kts
30-Apr-19 07:04 32.510453 -113.487898 114 9500ft 147kts
30-Apr-19 07:05 32.492863 -113.443740 114 9500ft 147kts
30-Apr-19 07:07 32.475316 -113.399749 114 9500ft 147kts
30-Apr-19 07:08 32.457754 -113.355774 114 9500ft 147kts
30-Apr-19 07:09 32.440151 -113.311755 115 9500ft 147kts
30-Apr-19 07:10 32.422496 -113.267661 115 9500ft 147kts
30-Apr-19 07:11 32.404824 -113.223578 115 9500ft 147kts
30-Apr-19 07:12 32.387102 -113.179426 115 9500ft 147kts
30-Apr-19 07:13 32.369482 -113.135582 115 9500ft 147kts
30-Apr-19 07:14 32.353110 -113.094895 115 9500ft 147kts
30-Apr-19 07:15 32.335436 -113.051023 115 9500ft 147kts
30-Apr-19 07:16 32.317682 -113.007008 115 9500ft 148kts
30-Apr-19 07:17 32.300017 -112.963270 115 9500ft 148kts
30-Apr-19 07:18 32.282207 -112.919224 115 9500ft 148kts
30-Apr-19 07:19 32.264459 -112.875389 115 9500ft 148kts
30-Apr-19 07:20 32.246709 -112.831603 115 9500ft 148kts
30-Apr-19 07:21 32.228944 -112.787834 115 9500ft 148kts
30-Apr-19 07:22 32.211135 -112.744013 115 9500ft 148kts
30-Apr-19 07:23 32.193355 -112.700315 115 9500ft 148kts
30-Apr-19 07:24 32.175512 -112.656518 115 9500ft 148kts
30-Apr-19 07:25 32.157668 -112.612771 115 9500ft 148kts
30-Apr-19 07:26 32.139842 -112.569123 115 9500ft 148kts
30-Apr-19 07:27 32.121956 -112.525381 115 9500ft 148kts
30-Apr-19 07:28 32.104040 -112.481622 115 9500ft 148kts
30-Apr-19 07:29 32.086180 -112.438051 115 9500ft 148kts
30-Apr-19 07:30 32.068189 -112.394217 115 9500ft 148kts
30-Apr-19 07:31 32.050032 -112.350031 115 9500ft 148kts
30-Apr-19 07:32 32.031971 -112.306142 115 9500ft 148kts
30-Apr-19 07:33 32.013998 -112.262515 115 9500ft 148kts
30-Apr-19 07:33 31.999041 -112.226248 115 9500ft 148kts
30-Apr-19 07:35 31.977987 -112.175258 115 9500ft 148kts
30-Apr-19 07:35 31.962976 -112.138949 115 9500ft 148kts
30-Apr-19 07:37 31.941969 -112.088197 115 9500ft 148kts
30-Apr-19 07:37 31.926911 -112.051863 115 9500ft 148kts
30-Apr-19 07:38 31.909183 -112.009129 115 9500ft 148kts
30-Apr-19 07:40 31.888408 -111.959117 115 9500ft 148kts
30-Apr-19 07:40 31.873357 -111.922930 115 9500ft 148kts
30-Apr-19 07:42 31.852258 -111.872263 115 9500ft 148kts
30-Apr-19 07:42 31.837119 -111.835954 115 9500ft 148kts
30-Apr-19 07:43 31.819041 -111.792643 115 9500ft 148kts
30-Apr-19 07:44 31.800899 -111.749229 115 9500ft 148kts
30-Apr-19 07:45 31.782745 -111.705842 115 9500ft 148kts
30-Apr-19 07:46 31.764521 -111.662338 115 9499ft 148kts
30-Apr-19 07:47 31.746320 -111.618947 115 9500ft 148kts
30-Apr-19 07:48 31.728140 -111.575653 115 9500ft 148kts
30-Apr-19 07:49 31.710721 -111.534218 115 9500ft 148kts
30-Apr-19 07:50 31.692491 -111.490906 115 9500ft 148kts
30-Apr-19 07:51 31.674219 -111.447543 115 9500ft 148kts
30-Apr-19 07:52 31.655969 -111.404286 115 9500ft 148kts
30-Apr-19 07:53 31.637685 -111.361001 115 9500ft 148kts
30-Apr-19 07:54 31.619330 -111.317600 116 9500ft 148kts
30-Apr-19 07:55 31.601019 -111.274355 116 9500ft 148kts
30-Apr-19 07:56 31.582690 -111.231118 116 9500ft 148kts
30-Apr-19 07:57 31.563175 -111.188666 136 9497ft 148kts
30-Apr-19 07:58 31.531526 -111.157644 140 9500ft 148kts
30-Apr-19 07:59 31.499885 -111.126862 140 9500ft 148kts
30-Apr-19 08:00 31.467875 -111.095725 140 9298ft 159kts
30-Apr-19 08:01 31.432306 -111.061134 140 8402ft 169kts
30-Apr-19 08:02 31.395953 -111.025787 140 7502ft 170kts
30-Apr-19 08:03 31.369580 -110.984563 69 6590ft 169kts
30-Apr-19 08:04 31.393632 -110.946148 90 6141ft 143kts
30-Apr-19 08:05 31.391196 -110.902084 85 5111ft 135kts
30-Apr-19 08:06 31.403794 -110.864951 45 4046ft 102kts
30-Apr-19 08:07 31.415572 -110.850556 36 3876ft 6kts

Navigation Log

Ident Type
Flight plan parsing failed, navigation log unavailable